Skip Navigation LinksHome page > Weather > Current weather Skip Navigation Links

Current Weather

General Mitchell International, Milwaukee

For information only: do not use for flight planning or navigation.
Latest weather
Observation time Monday, June 21, 2021 7:52 PM CDT
Local time Monday, June 21, 2021 8:12 PM CDT
Flight conditions Visual Meteorological Conditions
Winds
Wind direction Northwest (320°)
Wind speed 13 mph
Wind gusting to 23 mph
Visibility 10 mi.
Sky condition
Ceiling 7,500 ft. broken clouds
Cloud layer few clouds 6,000 ft.
Cloud layer broken clouds 7,500 ft.
Temperature 64°F
Dewpoint 37°F
Altimeter 29.88 in.Hg
Derived measurements
Relative humidity 37%
Density altitude 1213 ft.
Sea-level pressure 29.88 in.Hg
Remarks
Automated weather observing station with precipitation discriminator.
METAR KMKE 220052Z 32011G20KT 10SM FEW060 BKN075 18/03 A2988 RMK AO2 SLP118 T01780028

Settings

Location code

InnerDrive.Weather 4.0.6770.0 Release CLR 4.0.30319.42000
Copyright ©2018 Inner Drive Technology. All rights reserved. Portions Copyright ©1986-2018 David Braverman.

Find weather

Site navigation


Skip Navigation Links

Place info

Page info

PayPal - The safer, easier way to pay online!

Return home.

Copyright ©2021 Inner Drive Technology. Purveyors of fine, hand-crafted computer software. Page printed 2021-06-22T01:12:13 UTC.